createdAt,value
2018-08-17T00:00:27.941Z,1010.21
2018-08-17T00:01:27.898Z,1010.23
2018-08-17T00:02:27.855Z,1010.20
2018-08-17T00:03:27.816Z,1010.16
2018-08-17T00:04:27.769Z,1010.14
2018-08-17T00:05:27.732Z,1010.13
2018-08-17T00:06:27.683Z,1010.11
2018-08-17T00:07:27.642Z,1010.13
2018-08-17T00:08:27.596Z,1010.15
2018-08-17T00:09:27.553Z,1010.09
2018-08-17T00:10:27.510Z,1010.08
2018-08-17T00:11:27.516Z,1010.12
2018-08-17T00:12:27.423Z,1010.13
2018-08-17T00:13:27.379Z,1010.12
2018-08-17T00:14:27.337Z,1010.13
2018-08-17T00:15:27.294Z,1010.13
2018-08-17T00:16:27.251Z,1010.08
2018-08-17T00:17:27.209Z,1010.12
2018-08-17T00:18:27.164Z,1010.09
2018-08-17T00:19:27.124Z,1010.12
2018-08-17T00:20:27.079Z,1010.07
2018-08-17T00:21:27.034Z,1010.08
2018-08-17T00:22:26.992Z,1010.04
2018-08-17T00:23:26.949Z,1010.07
2018-08-17T00:24:26.905Z,1010.09
2018-08-17T00:25:26.862Z,1010.09
2018-08-17T00:26:26.819Z,1010.10
2018-08-17T00:27:26.780Z,1010.07
2018-08-17T00:28:26.733Z,1010.07
2018-08-17T00:29:26.690Z,1010.06
2018-08-17T00:30:26.646Z,1010.02
2018-08-17T00:31:26.603Z,1010.03
2018-08-17T00:32:26.560Z,1010.02
2018-08-17T00:33:26.519Z,1010.04
2018-08-17T00:34:26.473Z,1010.02
2018-08-17T00:35:26.430Z,1010.05
2018-08-17T00:36:26.387Z,1010.06
2018-08-17T00:37:26.342Z,1010.05
2018-08-17T00:38:26.300Z,1010.05
2018-08-17T00:39:26.256Z,1010.02
2018-08-17T00:40:26.213Z,1009.99
2018-08-17T00:41:26.169Z,1009.98
2018-08-17T00:42:26.126Z,1010.01
2018-08-17T00:43:26.082Z,1009.99
2018-08-17T00:44:26.042Z,1009.97
2018-08-17T00:45:25.996Z,1009.98
2018-08-17T00:46:25.952Z,1009.96
2018-08-17T00:47:25.913Z,1009.99
2018-08-17T00:48:25.870Z,1009.98
2018-08-17T00:49:25.825Z,1009.94
2018-08-17T00:50:25.779Z,1009.94
2018-08-17T00:51:25.740Z,1009.93
2018-08-17T00:52:25.793Z,1009.96
2018-08-17T00:53:25.648Z,1009.95
2018-08-17T00:54:25.609Z,1009.95
2018-08-17T00:55:25.574Z,1009.97
2018-08-17T00:56:25.519Z,1009.97
2018-08-17T00:57:25.477Z,1009.98
2018-08-17T00:58:25.432Z,1009.97
2018-08-17T00:59:25.389Z,1009.92
2018-08-17T01:00:25.345Z,1009.96
2018-08-17T01:01:25.301Z,1009.93
2018-08-17T01:02:25.258Z,1009.95
2018-08-17T01:03:25.215Z,1009.96
2018-08-17T01:04:25.173Z,1009.96
2018-08-17T01:05:25.134Z,1009.98
2018-08-17T01:06:25.088Z,1009.95
2018-08-17T01:07:25.042Z,1009.99
2018-08-17T01:08:24.998Z,1010.00
2018-08-17T01:09:24.954Z,1010.02
2018-08-17T01:10:24.910Z,1009.96
2018-08-17T01:11:24.917Z,1010.03
2018-08-17T01:12:24.824Z,1009.99
2018-08-17T01:13:24.782Z,1010.05
2018-08-17T01:14:24.737Z,1009.99
2018-08-17T01:15:24.693Z,1009.99
2018-08-17T01:16:24.650Z,1009.98
2018-08-17T01:17:24.606Z,1010.01
2018-08-17T01:18:24.562Z,1010.00
2018-08-17T01:19:24.520Z,1009.99
2018-08-17T01:20:24.476Z,1010.00
2018-08-17T01:21:24.432Z,1010.02
2018-08-17T01:22:24.389Z,1009.98
2018-08-17T01:23:24.345Z,1010.01
2018-08-17T01:24:24.302Z,1009.97
2018-08-17T01:25:24.257Z,1010.02
2018-08-17T01:26:24.218Z,1010.00
2018-08-17T01:27:24.171Z,1010.00
2018-08-17T01:28:24.128Z,1010.00
2018-08-17T01:29:24.083Z,1009.98
2018-08-17T01:30:24.040Z,1010.01
2018-08-17T01:31:23.998Z,1009.96
2018-08-17T01:32:23.959Z,1009.97
2018-08-17T01:33:23.910Z,1010.05
2018-08-17T01:34:23.866Z,1010.02
2018-08-17T01:35:23.823Z,1009.97
2018-08-17T01:36:23.779Z,1010.02
2018-08-17T01:37:23.735Z,1010.00
2018-08-17T01:38:23.694Z,1009.99
2018-08-17T01:39:23.648Z,1009.99
2018-08-17T01:40:23.605Z,1009.99
2018-08-17T01:41:23.560Z,1009.98
2018-08-17T01:42:23.519Z,1009.95
2018-08-17T01:43:23.474Z,1009.97
2018-08-17T01:44:23.430Z,1009.93
2018-08-17T01:45:23.386Z,1009.93
2018-08-17T01:46:23.343Z,1009.96
2018-08-17T01:47:23.302Z,1009.93
2018-08-17T01:48:23.256Z,1009.91
2018-08-17T01:49:23.214Z,1009.89
2018-08-17T01:50:23.168Z,1009.88
2018-08-17T01:51:23.124Z,1009.88
2018-08-17T01:52:23.081Z,1009.85
2018-08-17T01:53:23.037Z,1009.83
2018-08-17T01:54:22.993Z,1009.85
2018-08-17T01:55:22.950Z,1009.85
2018-08-17T01:56:22.908Z,1009.82
2018-08-17T01:57:22.862Z,1009.83
2018-08-17T01:58:22.819Z,1009.81
2018-08-17T01:59:22.775Z,1009.82
2018-08-17T02:00:22.738Z,1009.80
2018-08-17T02:01:22.687Z,1009.81
2018-08-17T02:02:22.643Z,1009.81
2018-08-17T02:03:22.600Z,1009.80
2018-08-17T02:04:22.557Z,1009.80
2018-08-17T02:05:22.513Z,1009.81
2018-08-17T02:06:22.476Z,1009.79
2018-08-17T02:07:22.426Z,1009.82
2018-08-17T02:08:22.381Z,1009.78
2018-08-17T02:09:22.338Z,1009.78
2018-08-17T02:10:22.294Z,1009.80
2018-08-17T02:11:22.251Z,1009.78
2018-08-17T02:12:22.207Z,1009.78
2018-08-17T02:13:22.165Z,1009.76
2018-08-17T02:14:22.118Z,1009.75
2018-08-17T02:15:22.079Z,1009.74
2018-08-17T02:16:22.032Z,1009.72
2018-08-17T02:17:21.987Z,1009.74
2018-08-17T02:18:21.948Z,1009.75
2018-08-17T02:19:21.902Z,1009.71
2018-08-17T02:20:21.857Z,1009.74
2018-08-17T02:21:21.812Z,1009.71
2018-08-17T02:22:21.769Z,1009.69
2018-08-17T02:23:21.725Z,1009.72
2018-08-17T02:24:21.693Z,1009.73
2018-08-17T02:25:21.637Z,1009.73
2018-08-17T02:26:21.602Z,1009.76
2018-08-17T02:27:21.550Z,1009.77
2018-08-17T02:28:21.507Z,1009.78
2018-08-17T02:29:21.462Z,1009.74
2018-08-17T02:30:21.419Z,1009.75
2018-08-17T02:31:21.375Z,1009.75
2018-08-17T02:32:21.332Z,1009.76
2018-08-17T02:33:21.287Z,1009.77
2018-08-17T02:34:21.250Z,1009.75
2018-08-17T02:35:21.200Z,1009.77
2018-08-17T02:36:21.161Z,1009.78
2018-08-17T02:37:21.111Z,1009.74
2018-08-17T02:38:21.068Z,1009.75
2018-08-17T02:39:21.024Z,1009.74
2018-08-17T02:40:20.986Z,1009.74
2018-08-17T02:41:20.936Z,1009.76
2018-08-17T02:42:20.894Z,1009.74
2018-08-17T02:43:20.853Z,1009.75
2018-08-17T02:44:20.812Z,1009.71
2018-08-17T02:45:20.760Z,1009.71
2018-08-17T02:46:20.731Z,1009.71
2018-08-17T02:47:20.673Z,1009.66
2018-08-17T02:48:20.630Z,1009.67
2018-08-17T02:49:20.591Z,1009.65
2018-08-17T02:50:20.542Z,1009.62
2018-08-17T02:51:20.497Z,1009.67
2018-08-17T02:52:20.463Z,1009.66
2018-08-17T02:53:20.409Z,1009.66
2018-08-17T02:54:20.366Z,1009.62
2018-08-17T02:55:20.322Z,1009.64
2018-08-17T02:56:20.278Z,1009.63
2018-08-17T02:57:20.235Z,1009.66
2018-08-17T02:58:20.190Z,1009.63
2018-08-17T02:59:20.217Z,1009.61
2018-08-17T03:00:20.105Z,1009.65
2018-08-17T03:01:20.058Z,1009.65
2018-08-17T03:02:20.022Z,1009.65
2018-08-17T03:03:19.971Z,1009.63
2018-08-17T03:04:19.928Z,1009.59
2018-08-17T03:05:19.882Z,1009.64
2018-08-17T03:06:19.840Z,1009.62
2018-08-17T03:07:19.794Z,1009.64
2018-08-17T03:08:19.753Z,1009.58
2018-08-17T03:09:19.710Z,1009.57
2018-08-17T03:10:19.663Z,1009.60
2018-08-17T03:11:19.619Z,1009.58
2018-08-17T03:12:19.575Z,1009.58
2018-08-17T03:13:19.531Z,1009.62
2018-08-17T03:14:19.492Z,1009.59
2018-08-17T03:15:19.443Z,1009.60
2018-08-17T03:16:19.399Z,1009.61
2018-08-17T03:17:19.354Z,1009.59
2018-08-17T03:18:19.310Z,1009.64
2018-08-17T03:19:19.267Z,1009.58
2018-08-17T03:20:19.223Z,1009.57
2018-08-17T03:21:19.183Z,1009.56
2018-08-17T03:22:19.135Z,1009.61
2018-08-17T03:23:19.095Z,1009.59
2018-08-17T03:24:19.048Z,1009.60
2018-08-17T03:25:19.001Z,1009.58
2018-08-17T03:26:18.958Z,1009.57
2018-08-17T03:27:18.917Z,1009.60
2018-08-17T03:28:18.870Z,1009.60
2018-08-17T03:29:18.827Z,1009.59
2018-08-17T03:30:18.782Z,1009.68
2018-08-17T03:31:18.742Z,1009.64
2018-08-17T03:32:18.698Z,1009.70
2018-08-17T03:33:18.649Z,1009.62
2018-08-17T03:34:18.607Z,1009.69
2018-08-17T03:35:18.561Z,1009.63
2018-08-17T03:36:18.517Z,1009.65
2018-08-17T03:37:18.501Z,1009.66
2018-08-17T03:38:18.429Z,1009.67
2018-08-17T03:39:18.385Z,1009.65
2018-08-17T03:40:18.344Z,1009.64
2018-08-17T03:41:18.296Z,1009.67
2018-08-17T03:42:18.253Z,1009.69
2018-08-17T03:43:18.209Z,1009.69
2018-08-17T03:44:18.165Z,1009.73
2018-08-17T03:45:18.120Z,1009.72
2018-08-17T03:46:18.076Z,1009.73
2018-08-17T03:47:18.032Z,1009.69
2018-08-17T03:48:18.089Z,1009.72
2018-08-17T03:49:17.943Z,1009.74
2018-08-17T03:50:17.900Z,1009.74
2018-08-17T03:51:17.856Z,1009.74
2018-08-17T03:52:17.812Z,1009.73
2018-08-17T03:53:17.767Z,1009.74
2018-08-17T03:54:17.723Z,1009.76
2018-08-17T03:55:17.679Z,1009.73
2018-08-17T03:56:17.640Z,1009.75
2018-08-17T03:57:17.590Z,1009.74
2018-08-17T03:58:17.547Z,1009.77
2018-08-17T03:59:17.502Z,1009.74
2018-08-17T04:00:17.458Z,1009.74
2018-08-17T04:01:17.414Z,1009.69
2018-08-17T04:02:17.370Z,1009.70
2018-08-17T04:03:17.326Z,1009.69
2018-08-17T04:04:17.282Z,1009.69
2018-08-17T04:05:17.237Z,1009.69
2018-08-17T04:06:17.193Z,1009.70
2018-08-17T04:07:17.149Z,1009.71
2018-08-17T04:08:17.104Z,1009.70
2018-08-17T04:09:17.060Z,1009.72
2018-08-17T04:10:17.016Z,1009.72
2018-08-17T04:11:16.972Z,1009.72
2018-08-17T04:12:16.928Z,1009.70
2018-08-17T04:13:16.883Z,1009.70
2018-08-17T04:14:16.839Z,1009.73
2018-08-17T04:15:16.795Z,1009.70
2018-08-17T04:16:16.752Z,1009.72
2018-08-17T04:17:16.706Z,1009.75
2018-08-17T04:18:16.662Z,1009.74
2018-08-17T04:19:16.618Z,1009.71
2018-08-17T04:20:16.574Z,1009.72
2018-08-17T04:21:16.530Z,1009.70
2018-08-17T04:22:16.485Z,1009.72
2018-08-17T04:23:16.441Z,1009.77
2018-08-17T04:24:16.397Z,1009.74
2018-08-17T04:25:16.352Z,1009.73
2018-08-17T04:26:16.308Z,1009.76
2018-08-17T04:27:16.267Z,1009.77
2018-08-17T04:28:16.220Z,1009.79
2018-08-17T04:29:16.175Z,1009.81
2018-08-17T04:30:16.131Z,1009.81
2018-08-17T04:31:16.087Z,1009.81
2018-08-17T04:32:16.043Z,1009.82
2018-08-17T04:33:15.998Z,1009.84
2018-08-17T04:34:15.960Z,1009.85
2018-08-17T04:35:15.944Z,1009.82
2018-08-17T04:36:15.865Z,1009.86
2018-08-17T04:37:15.820Z,1009.85
2018-08-17T04:38:15.776Z,1009.85
2018-08-17T04:39:15.732Z,1009.87
2018-08-17T04:40:15.688Z,1009.84
2018-08-17T04:41:15.648Z,1009.88
2018-08-17T04:42:15.599Z,1009.86
2018-08-17T04:43:15.555Z,1009.82
2018-08-17T04:44:15.511Z,1009.84
2018-08-17T04:45:15.466Z,1009.84
2018-08-17T04:46:15.421Z,1009.83
2018-08-17T04:47:15.377Z,1009.85
2018-08-17T04:48:15.333Z,1009.87
2018-08-17T04:49:15.304Z,1009.85
2018-08-17T04:50:15.244Z,1009.85
2018-08-17T04:51:15.199Z,1009.85
2018-08-17T04:52:15.156Z,1009.88
2018-08-17T04:53:15.114Z,1009.88
2018-08-17T04:54:15.066Z,1009.87
2018-08-17T04:55:15.022Z,1009.88
2018-08-17T04:56:14.978Z,1009.87
2018-08-17T04:57:14.933Z,1009.87
2018-08-17T04:58:14.890Z,1009.90
2018-08-17T04:59:14.844Z,1009.90
2018-08-17T05:00:14.800Z,1009.90
2018-08-17T05:01:14.759Z,1009.89
2018-08-17T05:02:14.714Z,1009.88
2018-08-17T05:03:14.691Z,1009.84
2018-08-17T05:04:14.624Z,1009.87
2018-08-17T05:05:14.578Z,1009.91
2018-08-17T05:06:14.534Z,1009.89
2018-08-17T05:07:14.489Z,1009.88
2018-08-17T05:08:14.447Z,1009.92
2018-08-17T05:09:14.401Z,1009.94
2018-08-17T05:10:14.356Z,1009.93
2018-08-17T05:11:14.315Z,1009.88
2018-08-17T05:12:14.269Z,1009.91
2018-08-17T05:13:14.224Z,1009.89
2018-08-17T05:14:14.179Z,1009.92
2018-08-17T05:15:14.135Z,1009.90
2018-08-17T05:16:14.091Z,1009.91
2018-08-17T05:17:14.049Z,1009.93
2018-08-17T05:18:14.002Z,1009.96
2018-08-17T05:19:13.958Z,1009.96
2018-08-17T05:20:13.914Z,1009.95
2018-08-17T05:21:13.872Z,1009.98
2018-08-17T05:22:13.826Z,1009.99
2018-08-17T05:23:13.785Z,1009.93
2018-08-17T05:24:13.738Z,1009.96
2018-08-17T05:25:13.692Z,1009.96
2018-08-17T05:26:13.651Z,1009.99
2018-08-17T05:27:13.610Z,1010.00
2018-08-17T05:28:13.560Z,1010.00
2018-08-17T05:29:13.515Z,1010.02
2018-08-17T05:30:13.471Z,1010.02
2018-08-17T05:31:13.427Z,1010.03
2018-08-17T05:32:13.385Z,1010.04
2018-08-17T05:33:13.338Z,1010.08
2018-08-17T05:34:13.320Z,1010.08
2018-08-17T05:35:13.250Z,1010.09
2018-08-17T05:36:13.205Z,1010.10
2018-08-17T05:37:13.161Z,1010.10
2018-08-17T05:38:13.116Z,1010.14
2018-08-17T05:39:13.074Z,1010.12
2018-08-17T05:40:13.029Z,1010.15
2018-08-17T05:41:12.984Z,1010.15
2018-08-17T05:42:12.942Z,1010.16
2018-08-17T05:43:12.896Z,1010.18
2018-08-17T05:44:12.852Z,1010.17
2018-08-17T05:45:12.871Z,1010.17
2018-08-17T05:46:12.764Z,1010.19
2018-08-17T05:47:12.720Z,1010.16
2018-08-17T05:48:12.676Z,1010.16
2018-08-17T05:49:12.632Z,1010.13
2018-08-17T05:50:12.588Z,1010.13
2018-08-17T05:51:12.543Z,1010.14
2018-08-17T05:52:12.499Z,1010.15
2018-08-17T05:53:12.454Z,1010.16
2018-08-17T05:54:12.411Z,1010.16
2018-08-17T05:55:12.367Z,1010.21
2018-08-17T05:56:12.323Z,1010.18
2018-08-17T05:57:12.280Z,1010.19
2018-08-17T05:58:12.237Z,1010.19
2018-08-17T05:59:12.191Z,1010.17
2018-08-17T06:00:12.148Z,1010.15
2018-08-17T06:01:12.103Z,1010.15
2018-08-17T06:02:12.064Z,1010.13
2018-08-17T06:03:12.015Z,1010.11
2018-08-17T06:04:11.973Z,1010.14
2018-08-17T06:05:11.927Z,1010.11
2018-08-17T06:06:11.885Z,1010.09
2018-08-17T06:07:11.840Z,1010.10
2018-08-17T06:08:11.799Z,1010.05
2018-08-17T06:09:11.752Z,1010.07
2018-08-17T06:10:11.712Z,1010.06
2018-08-17T06:11:11.830Z,1010.07
2018-08-17T06:12:11.622Z,1010.09
2018-08-17T06:13:11.577Z,1010.11
2018-08-17T06:14:11.534Z,1010.10
2018-08-17T06:15:11.491Z,1010.10
2018-08-17T06:16:11.449Z,1010.10
2018-08-17T06:17:11.405Z,1010.13
2018-08-17T06:18:11.360Z,1010.12
2018-08-17T06:19:11.424Z,1010.13
2018-08-17T06:20:11.277Z,1010.17
2018-08-17T06:21:11.243Z,1010.14
2018-08-17T06:22:11.185Z,1010.14
2018-08-17T06:23:11.142Z,1010.11
2018-08-17T06:24:11.099Z,1010.08
2018-08-17T06:25:11.055Z,1010.10
2018-08-17T06:26:11.012Z,1010.08
2018-08-17T06:27:10.968Z,1010.13
2018-08-17T06:28:10.925Z,1010.15
2018-08-17T06:29:10.881Z,1010.11
2018-08-17T06:30:10.838Z,1010.10
2018-08-17T06:31:10.797Z,1010.10
2018-08-17T06:32:10.753Z,1010.05
2018-08-17T06:33:10.710Z,1010.09
2018-08-17T06:34:10.668Z,1010.07
2018-08-17T06:35:10.622Z,1010.05
2018-08-17T06:36:10.633Z,1010.04
2018-08-17T06:37:10.549Z,1010.08
2018-08-17T06:38:10.493Z,1010.09
2018-08-17T06:39:10.450Z,1010.09
2018-08-17T06:40:10.410Z,1010.15
2018-08-17T06:41:10.362Z,1010.16
2018-08-17T06:42:10.321Z,1010.12
2018-08-17T06:43:10.278Z,1010.15
2018-08-17T06:44:10.235Z,1010.17
2018-08-17T06:45:10.192Z,1010.16
2018-08-17T06:46:10.151Z,1010.15
2018-08-17T06:47:10.108Z,1010.17
2018-08-17T06:48:10.067Z,1010.16
2018-08-17T06:49:10.022Z,1010.15
2018-08-17T06:50:09.986Z,1010.17
2018-08-17T06:51:10.052Z,1010.13
2018-08-17T06:52:09.897Z,1010.13
2018-08-17T06:53:09.853Z,1010.13
2018-08-17T06:54:09.811Z,1010.11
2018-08-17T06:55:09.769Z,1010.12
2018-08-17T06:56:09.728Z,1010.12
2018-08-17T06:57:09.742Z,1010.08
2018-08-17T06:58:09.643Z,1010.09
2018-08-17T06:59:09.602Z,1010.05
2018-08-17T07:00:09.560Z,1010.07
2018-08-17T07:01:09.518Z,1010.09
2018-08-17T07:02:09.476Z,1010.07
2018-08-17T07:03:09.439Z,1010.11
2018-08-17T07:04:09.393Z,1010.06
2018-08-17T07:05:09.352Z,1010.09
2018-08-17T07:06:09.310Z,1010.07
2018-08-17T07:07:09.272Z,1010.08
2018-08-17T07:08:09.228Z,1010.06
2018-08-17T07:09:09.229Z,1010.04
2018-08-17T07:10:09.147Z,1010.08
2018-08-17T07:11:09.104Z,1010.09
2018-08-17T07:12:09.063Z,1010.10
2018-08-17T07:13:09.021Z,1010.13
2018-08-17T07:14:08.980Z,1010.13
2018-08-17T07:15:08.940Z,1010.11
2018-08-17T07:16:08.898Z,1010.12
2018-08-17T07:17:08.863Z,1010.09
2018-08-17T07:18:08.817Z,1010.12
2018-08-17T07:19:08.776Z,1010.13
2018-08-17T07:20:08.737Z,1010.15
2018-08-17T07:21:08.694Z,1010.16
2018-08-17T07:22:08.654Z,1010.16
2018-08-17T07:23:08.613Z,1010.20
2018-08-17T07:24:08.574Z,1010.14
2018-08-17T07:25:08.532Z,1010.16
2018-08-17T07:26:08.541Z,1010.14
2018-08-17T07:27:08.451Z,1010.16
2018-08-17T07:28:08.444Z,1010.14
2018-08-17T07:29:08.370Z,1010.17
2018-08-17T07:30:08.330Z,1010.16
2018-08-17T07:31:08.290Z,1010.19
2018-08-17T07:32:08.350Z,1010.17
2018-08-17T07:33:08.210Z,1010.22
2018-08-17T07:34:08.170Z,1010.17
2018-08-17T07:35:08.130Z,1010.17
2018-08-17T07:36:08.091Z,1010.23
2018-08-17T07:37:08.050Z,1010.23
2018-08-17T07:38:08.011Z,1010.23
2018-08-17T07:39:07.971Z,1010.19
2018-08-17T07:40:07.933Z,1010.20
2018-08-17T07:41:07.892Z,1010.20
2018-08-17T07:42:07.853Z,1010.23
2018-08-17T07:43:07.814Z,1010.26
2018-08-17T07:44:07.778Z,1010.29
2018-08-17T07:45:07.735Z,1010.27
2018-08-17T07:46:07.696Z,1010.25
2018-08-17T07:47:07.657Z,1010.24
2018-08-17T07:48:07.729Z,1010.24
2018-08-17T07:49:07.580Z,1010.23
2018-08-17T07:50:07.540Z,1010.20
2018-08-17T07:51:07.502Z,1010.22
2018-08-17T07:52:07.464Z,1010.20
2018-08-17T07:53:07.432Z,1010.24
2018-08-17T07:54:07.391Z,1010.23
2018-08-17T07:55:07.348Z,1010.20
2018-08-17T07:56:07.310Z,1010.16
2018-08-17T07:57:07.271Z,1010.16
2018-08-17T07:58:07.236Z,1010.16
2018-08-17T07:59:07.236Z,1010.14
2018-08-17T08:00:07.158Z,1010.11
2018-08-17T08:01:07.119Z,1010.12
2018-08-17T08:02:07.082Z,1010.12
2018-08-17T08:03:07.044Z,1010.11
2018-08-17T08:04:07.006Z,1010.10
2018-08-17T08:05:06.968Z,1010.13
2018-08-17T08:06:06.931Z,1010.13
2018-08-17T08:07:06.897Z,1010.09
2018-08-17T08:08:06.856Z,1010.11
2018-08-17T08:09:06.820Z,1010.09
2018-08-17T08:10:06.781Z,1010.11
2018-08-17T08:11:06.907Z,1010.11
2018-08-17T08:12:06.707Z,1010.13
2018-08-17T08:13:06.670Z,1010.14
2018-08-17T08:14:06.633Z,1010.18
2018-08-17T08:15:06.595Z,1010.16
2018-08-17T08:16:06.559Z,1010.14
2018-08-17T08:17:06.522Z,1010.19
2018-08-17T08:18:06.486Z,1010.21
2018-08-17T08:19:06.452Z,1010.23
2018-08-17T08:20:06.413Z,1010.24
2018-08-17T08:21:06.376Z,1010.27
2018-08-17T08:22:06.339Z,1010.23
2018-08-17T08:23:06.303Z,1010.19
2018-08-17T08:24:06.266Z,1010.27
2018-08-17T08:25:06.230Z,1010.27
2018-08-17T08:26:06.237Z,1010.29
2018-08-17T08:27:06.159Z,1010.28
2018-08-17T08:28:06.122Z,1010.31
2018-08-17T08:29:06.085Z,1010.33
2018-08-17T08:30:06.051Z,1010.34
2018-08-17T08:31:06.014Z,1010.33
2018-08-17T08:32:05.985Z,1010.33
2018-08-17T08:33:05.942Z,1010.30
2018-08-17T08:34:05.906Z,1010.32
2018-08-17T08:35:05.871Z,1010.33
2018-08-17T08:36:05.838Z,1010.28
2018-08-17T08:37:05.800Z,1010.33
2018-08-17T08:38:05.764Z,1010.38
2018-08-17T08:39:05.729Z,1010.35
2018-08-17T08:40:05.694Z,1010.38
2018-08-17T08:41:05.657Z,1010.34
2018-08-17T08:42:05.623Z,1010.39
2018-08-17T08:43:05.591Z,1010.34
2018-08-17T08:44:05.553Z,1010.36
2018-08-17T08:45:05.517Z,1010.35
2018-08-17T08:46:05.487Z,1010.39
2018-08-17T08:47:05.445Z,1010.38
2018-08-17T08:48:05.412Z,1010.39
2018-08-17T08:49:05.376Z,1010.44
2018-08-17T08:50:05.342Z,1010.39
2018-08-17T08:51:05.307Z,1010.39
2018-08-17T08:52:05.318Z,1010.41
2018-08-17T08:53:05.237Z,1010.35
2018-08-17T08:54:05.203Z,1010.36
2018-08-17T08:55:05.169Z,1010.36
2018-08-17T08:56:05.189Z,1010.38
2018-08-17T08:57:05.099Z,1010.41
2018-08-17T08:58:05.064Z,1010.38
2018-08-17T08:59:05.030Z,1010.42
2018-08-17T09:00:04.996Z,1010.39
2018-08-17T09:01:04.961Z,1010.44
2018-08-17T09:02:04.927Z,1010.44
2018-08-17T09:03:04.893Z,1010.51
2018-08-17T09:04:04.859Z,1010.51
2018-08-17T09:05:04.824Z,1010.41
2018-08-17T09:06:04.790Z,1010.43
2018-08-17T09:07:04.756Z,1010.47
2018-08-17T09:08:04.764Z,1010.48
2018-08-17T09:09:04.688Z,1010.48
2018-08-17T09:10:04.655Z,1010.48
2018-08-17T09:11:04.621Z,1010.46
2018-08-17T09:12:04.588Z,1010.50
2018-08-17T09:13:04.555Z,1010.51
2018-08-17T09:14:04.519Z,1010.46
2018-08-17T09:15:04.486Z,1010.42
2018-08-17T09:16:04.452Z,1010.41
2018-08-17T09:17:04.423Z,1010.37
2018-08-17T09:18:04.384Z,1010.36
2018-08-17T09:19:04.352Z,1010.32
2018-08-17T09:20:04.319Z,1010.27
2018-08-17T09:21:04.283Z,1010.26
2018-08-17T09:22:04.249Z,1010.21
2018-08-17T09:23:04.216Z,1010.20
2018-08-17T09:24:04.183Z,1010.24
2018-08-17T09:25:04.151Z,1010.23
2018-08-17T09:26:04.111Z,1010.28
2018-08-17T09:27:04.076Z,1010.27
2018-08-17T09:28:04.043Z,1010.30
2018-08-17T09:29:04.059Z,1010.29
2018-08-17T09:30:04.035Z,1010.30
2018-08-17T09:31:03.938Z,1010.26
2018-08-17T09:32:03.899Z,1010.24
2018-08-17T09:33:03.863Z,1010.23
2018-08-17T09:34:03.826Z,1010.27
2018-08-17T09:35:03.791Z,1010.24
2018-08-17T09:36:03.797Z,1010.25
2018-08-17T09:37:03.717Z,1010.19
2018-08-17T09:38:03.679Z,1010.20
2018-08-17T09:39:03.643Z,1010.18
2018-08-17T09:40:03.605Z,1010.17
2018-08-17T09:41:03.570Z,1010.17
2018-08-17T09:42:03.570Z,1010.16
2018-08-17T09:43:03.492Z,1010.17
2018-08-17T09:44:03.454Z,1010.17
2018-08-17T09:45:03.465Z,1010.15
2018-08-17T09:46:03.378Z,1010.16
2018-08-17T09:47:03.339Z,1010.20
2018-08-17T09:48:03.301Z,1010.17
2018-08-17T09:49:03.262Z,1010.13
2018-08-17T09:50:03.223Z,1010.16
2018-08-17T09:51:03.185Z,1010.14
2018-08-17T09:52:03.147Z,1010.12
2018-08-17T09:53:03.107Z,1010.13
2018-08-17T09:54:03.069Z,1010.13
2018-08-17T09:55:03.080Z,1010.09
2018-08-17T09:56:02.991Z,1010.11
2018-08-17T09:57:02.951Z,1010.10
2018-08-17T09:58:02.912Z,1010.12
2018-08-17T09:59:02.876Z,1010.07
2018-08-17T10:00:02.835Z,1010.05
2018-08-17T10:01:02.793Z,1010.07
2018-08-17T10:02:02.755Z,1010.07
2018-08-17T10:03:02.715Z,1010.03
2018-08-17T10:04:02.692Z,1010.09
2018-08-17T10:05:02.635Z,1010.11
2018-08-17T10:06:02.598Z,1010.09
2018-08-17T10:07:02.557Z,1010.05
2018-08-17T10:08:02.517Z,1010.15
2018-08-17T10:09:02.476Z,1010.11
2018-08-17T10:10:02.437Z,1010.05
2018-08-17T10:11:02.399Z,1010.09
2018-08-17T10:12:02.357Z,1010.07
2018-08-17T10:13:02.317Z,1010.06
2018-08-17T10:14:02.277Z,1010.05
2018-08-17T10:15:02.237Z,1010.01
2018-08-17T10:16:02.197Z,1010.02
2018-08-17T10:17:02.163Z,1010.02
2018-08-17T10:18:02.119Z,1010.01
2018-08-17T10:19:02.076Z,1010.04
2018-08-17T10:20:02.037Z,1010.00
2018-08-17T10:21:02.102Z,1010.00
2018-08-17T10:22:02.362Z,1010.06
2018-08-17T10:23:01.918Z,1010.03
2018-08-17T10:24:01.877Z,1010.01
2018-08-17T10:25:01.844Z,1010.02
2018-08-17T10:26:01.795Z,1010.01
2018-08-17T10:27:01.755Z,1010.01
2018-08-17T10:28:01.717Z,1010.02
2018-08-17T10:29:01.674Z,1010.03
2018-08-17T10:30:01.639Z,1010.00
2018-08-17T10:31:01.623Z,1009.98
2018-08-17T10:32:01.556Z,1010.01
2018-08-17T10:33:01.512Z,1009.97
2018-08-17T10:34:01.497Z,1009.96
2018-08-17T10:35:01.432Z,1009.99
2018-08-17T10:36:01.392Z,1010.03
2018-08-17T10:37:01.351Z,1009.97
2018-08-17T10:38:01.311Z,1009.98
2018-08-17T10:39:01.271Z,1009.96
2018-08-17T10:40:01.234Z,1009.94
2018-08-17T10:41:01.191Z,1009.92
2018-08-17T10:42:01.152Z,1009.92
2018-08-17T10:43:01.112Z,1009.94
2018-08-17T10:44:01.070Z,1009.91
2018-08-17T10:45:01.029Z,1009.90
2018-08-17T10:46:00.990Z,1009.89
2018-08-17T10:47:00.949Z,1009.82
2018-08-17T10:48:00.910Z,1009.80
2018-08-17T10:49:00.957Z,1009.81
2018-08-17T10:50:00.828Z,1009.82
2018-08-17T10:51:00.791Z,1009.78
2018-08-17T10:52:00.748Z,1009.78
2018-08-17T10:53:00.711Z,1009.76
2018-08-17T10:54:00.666Z,1009.73
2018-08-17T10:55:00.626Z,1009.72
2018-08-17T10:56:00.587Z,1009.73
2018-08-17T10:57:00.545Z,1009.75
2018-08-17T10:58:00.505Z,1009.75
2018-08-17T10:59:00.465Z,1009.80
2018-08-17T11:00:00.425Z,1009.73
2018-08-17T11:01:00.384Z,1009.74
2018-08-17T11:02:00.344Z,1009.73
2018-08-17T11:03:00.304Z,1009.74
2018-08-17T11:04:00.266Z,1009.72
2018-08-17T11:05:00.222Z,1009.70
2018-08-17T11:06:00.182Z,1009.74
2018-08-17T11:07:00.142Z,1009.74
2018-08-17T11:08:00.104Z,1009.72
2018-08-17T11:09:00.065Z,1009.66
2018-08-17T11:10:00.023Z,1009.69
2018-08-17T11:11:00.040Z,1009.67
2018-08-17T11:11:59.942Z,1009.69
2018-08-17T11:12:59.902Z,1009.69
2018-08-17T11:13:59.859Z,1009.74
2018-08-17T11:14:59.819Z,1009.72
2018-08-17T11:15:59.779Z,1009.73
2018-08-17T11:16:59.811Z,1009.72
2018-08-17T11:17:59.698Z,1009.74
2018-08-17T11:18:59.661Z,1009.70
2018-08-17T11:19:59.618Z,1009.70
2018-08-17T11:20:59.576Z,1009.70
2018-08-17T11:21:59.537Z,1009.71
2018-08-17T11:22:59.656Z,1009.71
2018-08-17T11:23:59.457Z,1009.74
2018-08-17T11:24:59.416Z,1009.72
2018-08-17T11:25:59.384Z,1009.67
2018-08-17T11:26:59.335Z,1009.64
2018-08-17T11:27:59.294Z,1009.70
2018-08-17T11:28:59.257Z,1009.64
2018-08-17T11:29:59.213Z,1009.65
2018-08-17T11:30:59.173Z,1009.61
2018-08-17T11:31:59.133Z,1009.60
2018-08-17T11:32:59.091Z,1009.61
2018-08-17T11:33:59.057Z,1009.62
2018-08-17T11:34:59.015Z,1009.67
2018-08-17T11:35:58.970Z,1009.64
2018-08-17T11:36:58.929Z,1009.56
2018-08-17T11:37:58.893Z,1009.62
2018-08-17T11:38:58.852Z,1009.59
2018-08-17T11:39:58.808Z,1009.62
2018-08-17T11:40:58.766Z,1009.63
2018-08-17T11:41:58.727Z,1009.59
2018-08-17T11:42:58.686Z,1009.61
2018-08-17T11:43:58.645Z,1009.63
2018-08-17T11:44:58.604Z,1009.65
2018-08-17T11:45:58.563Z,1009.58
2018-08-17T11:46:58.523Z,1009.60
2018-08-17T11:47:58.485Z,1009.59
2018-08-17T11:48:58.441Z,1009.61
2018-08-17T11:49:58.401Z,1009.65
2018-08-17T11:50:58.360Z,1009.61
2018-08-17T11:51:58.421Z,1009.58
2018-08-17T11:52:58.285Z,1009.53
2018-08-17T11:53:58.287Z,1009.54
2018-08-17T11:54:58.198Z,1009.55
2018-08-17T11:55:58.158Z,1009.53
2018-08-17T11:56:58.117Z,1009.56
2018-08-17T11:57:58.076Z,1009.52
2018-08-17T11:58:58.037Z,1009.54
2018-08-17T11:59:57.995Z,1009.57
2018-08-17T12:00:58.006Z,1009.57
2018-08-17T12:01:57.932Z,1009.56
2018-08-17T12:02:57.875Z,1009.54
2018-08-17T12:03:57.833Z,1009.56
2018-08-17T12:04:57.793Z,1009.57